Time;durP1;ratioP1;P1;durP2;ratioP2;P2;SDS_P1;SDS_P2;PMS_P1;PMS_P2;Temp;Humidity;BMP_temperature;BMP_pressure;BME280_temperature;BME280_humidity;BME280_pressure;Samples;Min_cycle;Max_cycle;Signal;HPM_P1;HPM_P2
2022/03/08 00:02:18;;;;;;;52.85;18.83;;;;;;;-5.98;71.59;96000.03;5040098;28;20087;-71
2022/03/08 00:04:44;;;;;;;48.70;18.08;;;;;;;-5.93;71.28;95992.66;5053954;28;20069;-71
2022/03/08 00:07:10;;;;;;;50.33;18.73;;;;;;;-5.93;70.98;95992.66;5030409;28;20071;-71
2022/03/08 00:09:36;;;;;;;44.95;17.83;;;;;;;-5.95;71.02;95994.56;5049042;28;20044;-71
2022/03/08 00:12:02;;;;;;;46.17;18.15;;;;;;;-5.95;70.67;95989.44;5042991;28;20095;-71
2022/03/08 00:14:28;;;;;;;54.90;17.42;;;;;;;-5.92;69.87;95991.69;5042663;28;20121;-71
2022/03/08 00:16:53;;;;;;;44.35;16.98;;;;;;;-5.90;69.77;95987.22;5041282;28;20062;-71
2022/03/08 00:19:19;;;;;;;52.33;18.35;;;;;;;-5.75;70.23;95990.00;5046823;28;20037;-70
2022/03/08 00:21:44;;;;;;;44.17;17.25;;;;;;;-5.80;69.84;95987.91;5041061;28;20417;-70
2022/03/08 00:24:12;;;;;;;43.38;17.85;;;;;;;-5.89;70.74;95988.81;5045992;28;20096;-71
2022/03/08 00:26:38;;;;;;;42.13;17.15;;;;;;;-5.95;70.83;95989.44;5034819;28;20041;-71
2022/03/08 00:29:03;;;;;;;45.40;17.50;;;;;;;-5.88;70.68;95990.44;5054029;28;20047;-71
2022/03/08 00:31:29;;;;;;;47.63;18.05;;;;;;;-6.00;71.22;95986.59;5038986;28;20484;-71
2022/03/08 00:33:54;;;;;;;45.63;16.38;;;;;;;-6.15;71.27;95984.59;5034309;28;20041;-70
2022/03/08 00:36:20;;;;;;;49.83;17.42;;;;;;;-6.22;71.31;95983.59;5042444;28;20077;-71
2022/03/08 00:38:46;;;;;;;44.40;17.58;;;;;;;-6.20;71.74;95986.81;5043988;28;20103;-71
2022/03/08 00:41:11;;;;;;;42.78;16.67;;;;;;;-6.14;71.35;95986.19;5044817;28;20487;-70
2022/03/08 00:43:37;;;;;;;46.67;17.92;;;;;;;-6.21;71.81;95982.63;5048095;28;20506;-71
2022/03/08 00:46:02;;;;;;;46.88;16.88;;;;;;;-6.13;71.42;95980.13;5038940;28;20033;-70
2022/03/08 00:48:28;;;;;;;43.40;16.27;;;;;;;-6.16;71.20;95972.75;5040303;28;20052;-71
2022/03/08 00:50:53;;;;;;;44.45;16.92;;;;;;;-6.23;70.98;95976.88;5044467;28;20440;-71
2022/03/08 00:53:19;;;;;;;41.00;14.90;;;;;;;-6.18;71.68;95973.84;5044689;28;20048;-71
2022/03/08 00:55:44;;;;;;;46.67;17.20;;;;;;;-6.28;71.15;95971.38;5046187;28;20045;-71
2022/03/08 00:58:10;;;;;;;47.22;16.67;;;;;;;-6.39;71.24;95963.97;5050628;28;20045;-71
2022/03/08 01:00:38;;;;;;;43.33;17.70;;;;;;;-6.22;70.84;95959.72;5046872;28;20064;-71
2022/03/08 01:03:03;;;;;;;43.33;15.88;;;;;;;-6.38;71.40;95968.13;5032508;28;20049;-71
2022/03/08 01:05:30;;;;;;;45.20;17.13;;;;;;;-6.61;72.39;95971.19;5046985;28;20037;-71
2022/03/08 01:07:57;;;;;;;44.35;16.05;;;;;;;-6.52;72.69;95962.63;5051614;28;20041;-71
2022/03/08 01:10:24;;;;;;;53.80;16.13;;;;;;;-6.50;72.64;95960.72;5045020;28;20073;-71
2022/03/08 01:12:51;;;;;;;51.38;17.17;;;;;;;-6.53;72.45;95955.91;5041433;28;20037;-71
2022/03/08 01:15:19;;;;;;;45.63;16.58;;;;;;;-6.53;72.08;95961.00;5031101;28;20663;-71
2022/03/08 01:17:47;;;;;;;46.45;18.05;;;;;;;-6.62;74.00;95956.81;5032220;28;20120;-72
2022/03/08 01:20:13;;;;;;;43.38;16.67;;;;;;;-6.69;73.19;95953.25;5041780;28;20090;-72
2022/03/08 01:22:39;;;;;;;42.88;16.83;;;;;;;-6.55;72.71;95955.25;5044954;28;20052;-71
2022/03/08 01:25:06;;;;;;;48.85;16.88;;;;;;;-6.61;72.85;95953.28;5050834;28;20046;-72
2022/03/08 01:27:32;;;;;;;43.95;16.95;;;;;;;-6.73;72.66;95959.63;5044882;28;20037;-72
2022/03/08 01:29:57;;;;;;;49.67;16.15;;;;;;;-6.61;73.19;95953.28;5048500;28;20402;-72
2022/03/08 01:32:23;;;;;;;43.20;16.40;;;;;;;-6.68;72.64;95949.72;5031435;28;20034;-72
2022/03/08 01:34:49;;;;;;;54.13;17.55;;;;;;;-6.65;72.34;95941.72;5035864;28;20033;-71
2022/03/08 01:37:14;;;;;;;43.28;16.05;;;;;;;-6.77;73.52;95948.88;5053129;28;20045;-72
2022/03/08 01:39:40;;;;;;;43.67;16.83;;;;;;;-6.76;72.76;95949.69;5038361;28;20049;-72
2022/03/08 01:42:14;;;;;;;48.20;16.75;;;;;;;-6.68;73.03;95952.28;5043282;28;20505;-71
2022/03/08 01:44:41;;;;;;;45.95;16.10;;;;;;;-6.74;73.49;95947.78;5049733;28;20053;-71
2022/03/08 01:47:06;;;;;;;42.05;15.90;;;;;;;-6.90;73.41;95946.69;5048107;28;20049;-72
2022/03/08 01:49:32;;;;;;;46.40;17.45;;;;;;;-7.07;74.42;95944.97;5046328;28;20536;-71
2022/03/08 01:51:58;;;;;;;47.83;16.58;;;;;;;-6.98;74.52;95946.66;5038303;28;20048;-71
2022/03/08 01:54:24;;;;;;;51.22;16.65;;;;;;;-6.90;74.11;95939.03;5030774;28;20037;-71
2022/03/08 01:56:49;;;;;;;44.17;16.10;;;;;;;-6.96;74.97;95942.97;5049929;28;20121;-72
2022/03/08 01:59:15;;;;;;;47.53;17.42;;;;;;;-6.99;74.45;95940.72;5031279;28;20464;-71
2022/03/08 02:01:41;;;;;;;49.58;16.45;;;;;;;-6.94;74.51;95942.03;5034461;28;20048;-71
2022/03/08 02:04:06;;;;;;;47.50;17.05;;;;;;;-6.97;74.76;95938.84;5041246;28;20450;-72
2022/03/08 02:06:32;;;;;;;41.55;15.13;;;;;;;-7.00;74.23;95938.31;5042546;28;20446;-72
2022/03/08 02:08:58;;;;;;;48.33;15.88;;;;;;;-7.10;74.94;95940.16;5047888;28;20044;-71
2022/03/08 02:11:24;;;;;;;51.95;17.95;;;;;;;-7.16;75.13;95939.00;5042518;28;20038;-71
2022/03/08 02:13:49;;;;;;;41.75;15.60;;;;;;;-7.09;75.10;95939.22;5033881;28;20049;-72
2022/03/08 02:16:15;;;;;;;46.72;18.17;;;;;;;-7.18;75.53;95930.69;5046464;28;20414;-71
2022/03/08 02:18:41;;;;;;;49.03;17.50;;;;;;;-7.24;76.32;95926.97;5035690;28;20048;-71
2022/03/08 02:21:08;;;;;;;45.90;16.80;;;;;;;-7.22;75.65;95924.25;5047212;28;20052;-71
2022/03/08 02:23:34;;;;;;;44.60;17.00;;;;;;;-7.25;76.08;95920.22;5039526;28;20048;-70
2022/03/08 02:26:00;;;;;;;47.17;16.83;;;;;;;-7.33;76.45;95912.47;5046108;28;20048;-71
2022/03/08 02:28:28;;;;;;;48.25;16.27;;;;;;;-7.39;76.74;95902.84;5044883;28;20098;-71
2022/03/08 02:30:54;;;;;;;38.65;15.13;;;;;;;-7.32;75.93;95901.31;5057172;28;20072;-71
2022/03/08 02:33:20;;;;;;;44.45;16.23;;;;;;;-7.42;76.19;95900.59;5038908;28;20483;-70
2022/03/08 02:35:45;;;;;;;46.83;17.13;;;;;;;-7.47;76.23;95890.00;5039406;28;20486;-71
2022/03/08 02:38:11;;;;;;;43.40;17.02;;;;;;;-7.39;76.24;95902.84;5050320;28;20502;-71
2022/03/08 02:40:39;;;;;;;47.67;16.70;;;;;;;-7.43;76.36;95901.53;5035493;28;20037;-70
2022/03/08 02:43:07;;;;;;;47.38;16.17;;;;;;;-7.52;75.95;95898.91;5045362;28;20052;-71
2022/03/08 02:45:33;;;;;;;47.17;16.95;;;;;;;-7.50;76.31;95886.78;5044449;28;20041;-70
2022/03/08 02:47:59;;;;;;;53.25;18.40;;;;;;;-7.64;76.80;95889.88;5039032;28;20042;-71
2022/03/08 02:50:24;;;;;;;47.67;16.63;;;;;;;-7.69;77.45;95892.84;5038194;28;20384;-70
2022/03/08 02:52:53;;;;;;;55.17;17.50;;;;;;;-7.64;77.49;95884.75;5044030;28;20069;-70
2022/03/08 02:55:21;;;;;;;47.55;15.73;;;;;;;-7.61;77.57;95894.69;5032959;28;20047;-71
2022/03/08 02:57:48;;;;;;;52.28;17.55;;;;;;;-7.61;77.15;95889.56;5045778;28;20099;-72
2022/03/08 03:00:15;;;;;;;39.97;15.95;;;;;;;-7.66;76.83;95886.63;5036537;28;20044;-72
2022/03/08 03:02:41;;;;;;;44.20;16.52;;;;;;;-7.71;77.46;95894.75;5029424;28;20049;-71
2022/03/08 03:05:07;;;;;;;45.45;15.50;;;;;;;-7.79;78.23;95888.75;5033765;28;20042;-71
2022/03/08 03:07:33;;;;;;;44.17;15.75;;;;;;;-7.85;78.22;95888.38;5032939;28;20463;-70
2022/03/08 03:09:59;;;;;;;50.30;17.30;;;;;;;-7.81;78.34;95894.03;5043450;28;20044;-70
2022/03/08 03:12:25;;;;;;;48.13;16.80;;;;;;;-7.89;78.76;95889.63;5049614;28;20036;-70
2022/03/08 03:14:50;;;;;;;57.95;17.30;;;;;;;-7.88;78.78;95893.78;5070066;28;20074;-70
2022/03/08 03:17:19;;;;;;;43.47;15.77;;;;;;;-7.85;78.17;95893.50;5043447;28;20033;-71
2022/03/08 03:19:44;;;;;;;41.97;15.82;;;;;;;-7.88;78.03;95888.69;5042940;28;20052;-71
2022/03/08 03:22:10;;;;;;;48.75;16.80;;;;;;;-7.80;77.75;95889.69;5039407;28;20046;-71
2022/03/08 03:24:36;;;;;;;44.80;16.35;;;;;;;-7.81;77.51;95888.09;5034509;28;20130;-71
2022/03/08 03:27:01;;;;;;;50.67;17.58;;;;;;;-7.86;78.21;95881.69;5056706;28;20509;-71
2022/03/08 03:29:27;;;;;;;44.38;15.73;;;;;;;-7.82;78.09;95886.50;5032244;28;20037;-70
2022/03/08 03:31:52;;;;;;;47.58;16.63;;;;;;;-7.85;78.61;95883.28;5034293;28;20049;-71
2022/03/08 03:34:18;;;;;;;44.70;16.20;;;;;;;-7.84;78.34;95884.09;5033938;28;20051;-71
2022/03/08 03:36:44;;;;;;;41.33;16.02;;;;;;;-7.80;78.65;95879.47;5046019;28;20124;-71
2022/03/08 03:39:09;;;;;;;43.33;16.35;;;;;;;-7.87;78.99;95874.97;5040106;28;20509;-70
2022/03/08 03:41:35;;;;;;;47.25;16.85;;;;;;;-7.93;79.34;95875.56;5033269;28;20041;-71
2022/03/08 03:44:01;;;;;;;43.40;15.30;;;;;;;-7.89;78.78;95876.06;5032475;28;20549;-70
2022/03/08 03:46:26;;;;;;;51.00;17.13;;;;;;;-7.93;79.39;95873.00;5042782;28;20041;-70
2022/03/08 03:48:52;;;;;;;50.33;16.92;;;;;;;-7.97;79.03;95868.31;5032061;28;21936;-71
2022/03/08 03:51:18;;;;;;;51.28;17.70;;;;;;;-8.07;79.62;95873.50;5030709;28;20140;-71
2022/03/08 03:53:44;;;;;;;47.35;16.50;;;;;;;-8.10;79.64;95881.41;5040620;28;20076;-70
2022/03/08 03:56:10;;;;;;;49.75;17.33;;;;;;;-8.01;79.61;95878.03;5039788;28;20094;-70
2022/03/08 03:58:36;;;;;;;41.10;16.13;;;;;;;-8.05;79.36;95884.34;5038294;28;20049;-70
2022/03/08 04:01:02;;;;;;;50.38;16.85;;;;;;;-8.00;79.44;95879.63;5029848;28;20499;-70
2022/03/08 04:03:27;;;;;;;46.20;16.58;;;;;;;-7.95;78.91;95881.75;5029365;28;20041;-70
2022/03/08 04:05:53;;;;;;;50.67;17.85;;;;;;;-7.95;78.22;95882.53;5049246;28;20095;-71
2022/03/08 04:08:20;;;;;;;52.22;17.15;;;;;;;-8.03;78.64;95877.34;5042709;28;20057;-70
2022/03/08 04:10:50;;;;;;;46.17;17.25;;;;;;;-7.99;79.42;95880.44;5044429;28;20628;-70
2022/03/08 04:13:17;;;;;;;48.85;16.95;;;;;;;-7.94;79.18;95879.03;5035882;28;20037;-69
2022/03/08 04:15:43;;;;;;;48.65;18.27;;;;;;;-7.98;79.20;95882.84;5035333;28;20079;-70
2022/03/08 04:18:09;;;;;;;53.33;17.27;;;;;;;-7.92;79.52;95891.69;5041302;28;20034;-70
2022/03/08 04:20:35;;;;;;;48.72;16.98;;;;;;;-7.90;78.85;95885.47;5031606;28;20060;-71
2022/03/08 04:23:01;;;;;;;46.55;16.17;;;;;;;-7.87;78.61;95885.19;5034857;28;20120;-70
2022/03/08 04:25:27;;;;;;;50.08;17.35;;;;;;;-7.94;78.40;95894.38;5038989;28;20049;-70
2022/03/08 04:27:53;;;;;;;47.00;18.10;;;;;;;-7.94;78.57;95894.38;5036779;28;20041;-70
2022/03/08 04:30:18;;;;;;;51.45;17.02;;;;;;;-7.87;78.97;95890.28;5030128;28;20041;-70
2022/03/08 04:32:44;;;;;;;46.03;16.55;;;;;;;-7.88;78.61;95891.22;5034037;28;20042;-70
2022/03/08 04:35:11;;;;;;;48.55;18.33;;;;;;;-7.87;79.13;95890.28;5045755;28;20099;-69
2022/03/08 04:37:37;;;;;;;54.75;17.75;;;;;;;-7.96;78.73;95896.25;5045471;28;20080;-69
2022/03/08 04:40:07;;;;;;;47.58;17.08;;;;;;;-7.96;78.19;95896.25;5055236;28;20448;-69
2022/03/08 04:42:33;;;;;;;47.50;17.00;;;;;;;-7.96;78.56;95896.25;5031001;28;20880;-70
2022/03/08 04:44:58;;;;;;;52.95;18.98;;;;;;;-8.04;79.00;95896.19;5044238;28;20041;-70
2022/03/08 04:47:24;;;;;;;55.67;18.60;;;;;;;-7.98;78.77;95887.94;5035721;28;20486;-70
2022/03/08 04:49:50;;;;;;;47.88;16.92;;;;;;;-7.99;79.69;95891.44;5062130;28;20044;-70
2022/03/08 04:52:16;;;;;;;47.30;16.73;;;;;;;-8.01;79.11;95893.34;5034416;28;20041;-70
2022/03/08 04:54:41;;;;;;;51.83;17.00;;;;;;;-8.04;79.85;95893.63;5032946;28;20407;-69
2022/03/08 04:57:07;;;;;;;48.88;17.52;;;;;;;-8.07;79.35;95894.72;5040672;28;20049;-69
2022/03/08 04:59:32;;;;;;;51.35;16.50;;;;;;;-8.04;78.29;95893.63;5045717;28;20527;-70
2022/03/08 05:01:58;;;;;;;54.17;18.13;;;;;;;-8.15;79.87;95892.06;5043028;28;20045;-69
2022/03/08 05:04:24;;;;;;;53.42;18.92;;;;;;;-8.12;78.87;95896.88;5050410;28;20048;-69
2022/03/08 05:06:49;;;;;;;51.53;17.70;;;;;;;-8.14;79.15;95896.25;5045179;28;20417;-69
2022/03/08 05:09:16;;;;;;;49.65;17.63;;;;;;;-8.20;79.97;95889.94;5031743;28;20080;-71
2022/03/08 05:11:43;;;;;;;50.47;17.17;;;;;;;-8.18;79.61;95888.06;5035093;28;20048;-70
2022/03/08 05:14:09;;;;;;;54.75;18.23;;;;;;;-8.09;80.08;95885.59;5030811;28;20401;-70
2022/03/08 05:16:34;;;;;;;48.58;18.02;;;;;;;-8.06;80.22;95885.28;5035140;28;20041;-70
2022/03/08 05:19:00;;;;;;;54.70;18.88;;;;;;;-8.11;80.33;95883.19;5043735;28;20398;-70
2022/03/08 05:21:26;;;;;;;45.60;16.55;;;;;;;-8.09;79.70;95881.28;5040619;28;20547;-70
2022/03/08 05:23:51;;;;;;;54.75;18.63;;;;;;;-8.18;80.35;95877.84;5047066;28;20045;-70
2022/03/08 05:26:17;;;;;;;51.10;17.25;;;;;;;-8.17;80.43;95883.75;5033624;28;20653;-71
2022/03/08 05:28:42;;;;;;;49.83;17.90;;;;;;;-8.16;79.92;95879.44;5048570;28;20056;-70
2022/03/08 05:31:09;;;;;;;49.13;16.92;;;;;;;-8.17;79.24;95876.09;5044764;28;20037;-71
2022/03/08 05:33:35;;;;;;;51.25;18.88;;;;;;;-8.10;79.95;95878.88;5041820;28;20040;-71
2022/03/08 05:36:01;;;;;;;54.28;18.80;;;;;;;-8.11;80.54;95882.38;5047334;28;20136;-70
2022/03/08 05:38:26;;;;;;;50.80;18.17;;;;;;;-8.11;80.29;95877.28;5049348;28;20041;-70
2022/03/08 05:40:52;;;;;;;48.88;17.33;;;;;;;-8.14;81.49;95877.56;5046119;28;20071;-70
2022/03/08 05:43:18;;;;;;;56.45;17.83;;;;;;;-7.99;80.36;95881.22;5038215;28;20037;-71
2022/03/08 05:45:43;;;;;;;49.45;16.92;;;;;;;-8.02;80.88;95881.50;5050617;28;20072;-71
2022/03/08 05:48:10;;;;;;;46.67;16.52;;;;;;;-8.14;80.38;95872.47;5040983;28;20515;-71
2022/03/08 05:50:35;;;;;;;50.88;17.40;;;;;;;-8.20;81.28;95887.41;5032115;28;20167;-70
2022/03/08 05:53:01;;;;;;;55.97;17.83;;;;;;;-7.97;80.71;95881.91;5040892;28;20092;-71
2022/03/08 05:55:27;;;;;;;46.17;16.23;;;;;;;-7.90;80.42;95885.47;5031278;28;20061;-71
2022/03/08 05:57:52;;;;;;;59.63;18.38;;;;;;;-7.80;80.69;95887.16;5037668;28;20041;-70
2022/03/08 06:00:18;;;;;;;49.40;16.50;;;;;;;-7.84;80.36;95882.34;5049223;28;20577;-71
2022/03/08 06:02:43;;;;;;;55.15;18.30;;;;;;;-7.80;80.59;95889.69;5039360;28;20042;-71
2022/03/08 06:05:10;;;;;;;55.30;17.05;;;;;;;-7.70;80.57;95896.38;5050022;28;20418;-70
2022/03/08 06:07:35;;;;;;;50.25;17.30;;;;;;;-7.69;80.24;95897.16;5038980;28;20532;-70
2022/03/08 06:10:04;;;;;;;48.20;16.58;;;;;;;-7.65;79.55;95903.59;5038232;28;20124;-71
2022/03/08 06:12:29;;;;;;;56.00;17.65;;;;;;;-7.60;79.70;95901.41;5042258;28;20045;-71
2022/03/08 06:14:55;;;;;;;49.88;17.70;;;;;;;-7.51;80.34;95890.28;5031228;28;20041;-70
2022/03/08 06:17:21;;;;;;;47.55;17.27;;;;;;;-7.41;80.00;95894.50;5045329;28;20045;-70
2022/03/08 06:19:46;;;;;;;53.17;17.02;;;;;;;-7.41;80.05;95900.44;5031220;28;20088;-70
2022/03/08 06:22:12;;;;;;;53.28;17.60;;;;;;;-7.38;80.30;95895.03;5048125;28;20040;-70
2022/03/08 06:24:37;;;;;;;53.10;17.95;;;;;;;-7.29;80.27;95895.91;5044267;28;20038;-70
2022/03/08 06:27:03;;;;;;;52.33;17.40;;;;;;;-7.27;79.73;95896.53;5040688;28;20123;-71
2022/03/08 06:29:29;;;;;;;49.92;16.67;;;;;;;-7.15;80.18;95892.81;5047660;28;20119;-70
2022/03/08 06:31:54;;;;;;;48.17;16.75;;;;;;;-7.10;80.09;95891.56;5046793;28;20092;-70
2022/03/08 06:34:20;;;;;;;50.42;17.35;;;;;;;-7.03;80.32;95897.69;5031793;28;20160;-70
2022/03/08 06:36:46;;;;;;;45.15;15.50;;;;;;;-6.86;79.95;95893.47;5048132;28;20045;-69
2022/03/08 06:39:13;;;;;;;56.50;18.33;;;;;;;-6.66;79.64;95894.06;5050608;28;20045;-70
2022/03/08 06:41:38;;;;;;;43.75;16.48;;;;;;;-6.67;79.37;95882.22;5056883;28;20099;-70
2022/03/08 06:44:04;;;;;;;46.67;16.55;;;;;;;-6.62;79.48;95896.16;5047010;28;20424;-70
2022/03/08 06:46:30;;;;;;;58.92;17.20;;;;;;;-6.53;80.12;95889.31;5038056;28;20049;-68
2022/03/08 06:48:56;;;;;;;48.60;15.73;;;;;;;-6.43;79.92;95894.34;5044028;28;20091;-70
2022/03/08 06:51:22;;;;;;;54.22;15.10;;;;;;;-6.38;80.01;95896.44;5045814;28;20072;-70
2022/03/08 06:53:47;;;;;;;43.58;15.65;;;;;;;-6.28;80.09;95891.97;5036708;28;20644;-69
2022/03/08 06:56:13;;;;;;;44.63;16.45;;;;;;;-6.01;79.58;95892.72;5034617;28;20505;-69
2022/03/08 06:58:39;;;;;;;44.25;15.35;;;;;;;-5.94;78.66;95898.78;5045603;28;20052;-70
2022/03/08 07:01:05;;;;;;;44.15;15.43;;;;;;;-5.92;78.86;95897.69;5048241;28;20045;-71
2022/03/08 07:03:31;;;;;;;45.22;14.77;;;;;;;-5.86;79.24;95903.13;5039586;28;21011;-70
2022/03/08 07:05:56;;;;;;;37.25;14.35;;;;;;;-5.69;79.35;95902.19;5043358;28;20125;-70
2022/03/08 07:08:22;;;;;;;40.63;15.55;;;;;;;-5.58;78.92;95895.97;5043837;28;20034;-70
2022/03/08 07:10:47;;;;;;;44.00;14.50;;;;;;;-5.58;78.75;95903.66;5048242;28;20437;-70
2022/03/08 07:13:13;;;;;;;43.65;16.05;;;;;;;-5.54;78.56;95889.56;5040519;28;20033;-70
2022/03/08 07:15:39;;;;;;;50.80;17.05;;;;;;;-5.41;78.93;95894.22;5042976;28;20717;-70
2022/03/08 07:18:04;;;;;;;41.50;15.52;;;;;;;-5.35;77.88;95887.66;5045159;28;20041;-70
2022/03/08 07:20:30;;;;;;;44.42;15.32;;;;;;;-5.28;78.68;95893.75;5043665;28;20049;-70
2022/03/08 07:22:56;;;;;;;41.50;15.18;;;;;;;-5.11;78.29;95895.34;5043535;28;20045;-71
2022/03/08 07:25:21;;;;;;;41.17;14.50;;;;;;;-4.82;77.52;95894.03;5040499;28;20037;-70
2022/03/08 07:27:47;;;;;;;42.60;15.15;;;;;;;-4.79;76.84;95893.69;5047705;28;20084;-69
2022/03/08 07:30:13;;;;;;;43.65;15.02;;;;;;;-4.43;76.40;95893.28;5047113;28;20048;-69
2022/03/08 07:32:38;;;;;;;44.10;15.25;;;;;;;-4.38;76.05;95891.03;5033970;28;20045;-69
2022/03/08 07:35:05;;;;;;;45.75;15.85;;;;;;;-4.21;75.46;95898.66;5043480;28;20171;-68
2022/03/08 07:37:38;;;;;;;48.38;17.08;;;;;;;-3.95;75.43;95884.72;5033097;28;20041;-71
2022/03/08 07:40:06;;;;;;;41.22;16.33;;;;;;;-3.56;73.78;95888.97;5039662;28;20048;-69
2022/03/08 07:42:32;;;;;;;36.17;13.60;;;;;;;-3.42;73.50;95885.69;5039307;28;20044;-69
2022/03/08 07:44:57;;;;;;;39.50;15.80;;;;;;;-3.33;73.20;95889.81;5029278;28;20095;-69
2022/03/08 07:47:23;;;;;;;40.60;15.48;;;;;;;-3.36;72.26;95885.00;5046450;28;20063;-70
2022/03/08 07:49:49;;;;;;;35.13;14.30;;;;;;;-3.32;72.70;95890.59;5047325;28;20044;-70
2022/03/08 07:52:15;;;;;;;43.90;14.88;;;;;;;-3.00;71.87;95894.69;5046450;28;20491;-70
2022/03/08 07:54:40;;;;;;;38.03;14.27;;;;;;;-2.98;71.77;95900.44;5031023;28;20052;-69
2022/03/08 07:57:06;;;;;;;30.40;13.02;;;;;;;-2.66;69.53;95895.16;5038517;28;20041;-71
2022/03/08 07:59:32;;;;;;;37.25;15.73;;;;;;;-2.75;70.00;95897.03;5044446;28;20573;-70
2022/03/08 08:01:58;;;;;;;32.75;13.93;;;;;;;-2.48;68.34;95897.41;5042234;28;20037;-70
2022/03/08 08:04:24;;;;;;;34.60;14.48;;;;;;;-2.54;68.70;95887.78;5045787;28;20098;-71
2022/03/08 08:06:51;;;;;;;40.08;14.60;;;;;;;-2.72;69.56;95895.88;5048186;28;20052;-71
2022/03/08 08:09:16;;;;;;;40.25;15.07;;;;;;;-2.70;69.58;95894.75;5049029;28;20052;-70
2022/03/08 08:11:43;;;;;;;35.42;14.73;;;;;;;-2.65;68.98;95897.56;5042233;28;20045;-69
2022/03/08 08:14:09;;;;;;;37.72;14.68;;;;;;;-2.64;68.82;95894.03;5041252;28;20072;-70
2022/03/08 08:16:34;;;;;;;38.58;14.50;;;;;;;-2.61;68.62;95893.66;5039102;28;20045;-71
2022/03/08 08:19:00;;;;;;;32.95;14.57;;;;;;;-2.28;67.53;95898.47;5046915;28;20116;-71
2022/03/08 08:21:26;;;;;;;34.55;14.30;;;;;;;-2.00;66.96;95900.38;5047653;28;20044;-69
2022/03/08 08:23:52;;;;;;;37.45;15.30;;;;;;;-2.15;67.25;95902.22;5044778;28;20049;-72
2022/03/08 08:26:17;;;;;;;33.92;14.35;;;;;;;-1.84;67.18;95896.00;5044742;28;20033;-70
2022/03/08 08:28:43;;;;;;;38.20;15.77;;;;;;;-2.01;67.90;95893.66;5049030;28;20483;-70
2022/03/08 08:31:09;;;;;;;39.38;15.07;;;;;;;-1.90;66.60;95894.94;5046859;28;20482;-71
2022/03/08 08:33:35;;;;;;;35.25;14.77;;;;;;;-1.81;66.31;95893.06;5044239;28;20477;-71
2022/03/08 08:36:01;;;;;;;36.97;15.13;;;;;;;-1.55;66.18;95902.06;5046890;28;20051;-70
2022/03/08 08:38:26;;;;;;;30.15;13.77;;;;;;;-1.45;66.51;95894.81;5072834;28;20067;-69
2022/03/08 08:40:52;;;;;;;33.88;14.50;;;;;;;-1.66;66.31;95895.63;5045037;28;20045;-69
2022/03/08 08:43:18;;;;;;;36.78;15.18;;;;;;;-1.70;66.36;95895.16;5031381;28;20045;-69
2022/03/08 08:45:44;;;;;;;38.05;15.43;;;;;;;-1.51;65.11;95898.13;5048733;28;20094;-69
2022/03/08 08:48:11;;;;;;;51.65;14.10;;;;;;;-1.18;64.40;95897.66;5047728;28;20037;-69
2022/03/08 08:50:36;;;;;;;32.90;13.55;;;;;;;-1.33;64.65;95895.94;5034851;28;20080;-69
2022/03/08 08:53:02;;;;;;;31.50;12.85;;;;;;;-1.12;62.92;95902.06;5028739;28;20049;-69
2022/03/08 08:55:28;;;;;;;33.70;13.57;;;;;;;-1.07;62.80;95910.06;5028942;28;20511;-69
2022/03/08 08:57:53;;;;;;;29.35;13.00;;;;;;;-1.02;62.67;95901.75;5031239;28;20037;-69
2022/03/08 09:00:19;;;;;;;35.15;13.52;;;;;;;-0.98;61.85;95893.44;5066785;28;20049;-69
2022/03/08 09:02:45;;;;;;;28.52;12.55;;;;;;;-0.84;61.27;95899.50;5046836;28;20037;-69
2022/03/08 09:05:12;;;;;;;29.02;11.52;;;;;;;-0.79;61.27;95886.03;5036285;28;20044;-69
2022/03/08 09:07:39;;;;;;;28.65;11.40;;;;;;;-0.64;61.28;95894.47;5052412;28;20507;-69
2022/03/08 09:10:06;;;;;;;29.38;11.68;;;;;;;-0.60;59.94;95880.19;5052488;28;20079;-69
2022/03/08 09:12:32;;;;;;;26.17;11.85;;;;;;;-0.41;58.94;95888.25;5046744;28;20437;-69
2022/03/08 09:14:58;;;;;;;28.50;11.88;;;;;;;-0.30;59.01;95890.31;5049267;28;20044;-71
2022/03/08 09:17:24;;;;;;;29.58;12.18;;;;;;;-0.31;59.30;95886.13;5045641;28;20045;-70
2022/03/08 09:19:49;;;;;;;29.98;12.13;;;;;;;0.17;58.50;95883.56;5054459;28;20052;-70
2022/03/08 09:22:15;;;;;;;29.52;11.70;;;;;;;0.60;56.77;95882.44;5048260;28;20441;-69
2022/03/08 09:24:40;;;;;;;25.42;10.55;;;;;;;0.40;57.14;95890.16;5035356;28;20793;-70
2022/03/08 09:27:07;;;;;;;27.63;11.57;;;;;;;0.59;55.92;95888.63;5057207;28;20051;-70
2022/03/08 09:29:33;;;;;;;27.73;12.05;;;;;;;0.65;57.12;95880.06;5058891;28;20735;-70
2022/03/08 09:31:59;;;;;;;27.05;11.45;;;;;;;0.75;57.43;95871.91;5042665;28;20044;-70
2022/03/08 09:34:24;;;;;;;28.60;11.10;;;;;;;0.82;56.57;95872.72;5050536;28;20033;-70
2022/03/08 09:36:50;;;;;;;23.67;10.73;;;;;;;0.91;56.67;95880.31;5052033;28;20044;-70
2022/03/08 09:39:16;;;;;;;25.00;10.27;;;;;;;1.19;56.20;95867.94;5050623;28;20045;-69
2022/03/08 09:41:43;;;;;;;26.15;12.35;;;;;;;1.08;56.03;95865.94;5054674;28;20052;-70
2022/03/08 09:44:12;;;;;;;24.95;10.55;;;;;;;1.02;56.70;95864.13;5037852;28;20087;-70
2022/03/08 09:46:39;;;;;;;27.83;11.07;;;;;;;1.23;54.83;95857.16;5044350;28;20550;-70
2022/03/08 09:49:04;;;;;;;25.33;11.25;;;;;;;0.97;55.49;95861.34;5051756;28;20123;-70
2022/03/08 09:51:30;;;;;;;24.05;10.38;;;;;;;1.01;55.33;95854.78;5043260;28;20076;-70
2022/03/08 09:53:56;;;;;;;20.45;8.82;;;;;;;1.58;54.16;95864.66;5039727;28;20037;-70
2022/03/08 09:56:23;;;;;;;20.67;9.43;;;;;;;1.79;53.29;95864.41;5036853;28;20041;-70
2022/03/08 09:58:48;;;;;;;23.17;9.48;;;;;;;1.86;51.60;95862.56;5051568;28;20048;-70
2022/03/08 10:01:14;;;;;;;16.13;7.78;;;;;;;2.01;50.43;95864.13;5051545;28;20037;-70
2022/03/08 10:03:43;;;;;;;20.88;8.27;;;;;;;2.38;50.15;95864.34;5043053;28;20041;-70
2022/03/08 10:06:10;;;;;;;19.25;7.45;;;;;;;2.55;49.32;95859.47;5043040;28;20037;-70
2022/03/08 10:08:36;;;;;;;20.92;8.82;;;;;;;2.60;49.24;95855.22;5048458;28;20510;-70
2022/03/08 10:11:05;;;;;;;21.35;8.55;;;;;;;3.09;48.16;95852.88;5043885;28;20045;-69
2022/03/08 10:13:38;;;;;;;16.60;7.60;;;;;;;2.92;47.39;95860.41;5048150;28;20041;-70
2022/03/08 10:16:24;;;;;;;28.83;7.57;;;;;;;3.28;46.11;95851.09;5041379;28;20103;-70
2022/03/08 10:18:56;;;;;;;18.60;8.27;;;;;;;4.12;44.69;95852.41;5050889;28;20045;-71
2022/03/08 10:21:40;;;;;;;17.02;6.82;;;;;;;5.54;40.30;95839.59;5043919;28;20041;-72
2022/03/08 10:24:14;;;;;;;13.90;6.23;;;;;;;5.95;39.31;95832.63;5051543;28;20041;-70
2022/03/08 10:26:50;;;;;;;14.70;6.87;;;;;;;6.58;37.26;95840.59;5042306;28;20290;-70
2022/03/08 10:29:28;;;;;;;14.50;7.40;;;;;;;6.50;37.97;95839.13;5034227;28;20116;-70
2022/03/08 10:32:23;;;;;;;17.83;7.57;;;;;;;7.71;36.54;95831.00;5045849;28;20049;-70
2022/03/08 10:34:54;;;;;;;20.95;7.97;;;;;;;7.21;36.19;95838.72;5039345;28;20516;-70
2022/03/08 10:37:23;;;;;;;18.55;7.40;;;;;;;7.98;35.91;95836.31;5045882;28;20098;-70
2022/03/08 10:39:49;;;;;;;13.38;6.82;;;;;;;8.78;33.81;95828.75;5041562;28;20495;-71
2022/03/08 10:42:20;;;;;;;16.98;7.22;;;;;;;8.31;33.63;95839.81;5048510;28;20052;-70
2022/03/08 10:44:45;;;;;;;16.98;7.22;;;;;;;8.60;32.86;95826.47;5039271;28;20057;-70
2022/03/08 10:47:14;;;;;;;12.98;7.32;;;;;;;7.04;35.40;95837.91;5049564;28;20083;-71
2022/03/08 10:49:52;;;;;;;15.70;7.57;;;;;;;7.96;34.87;95838.38;5055099;28;20040;-71
2022/03/08 10:52:26;;;;;;;17.17;7.82;;;;;;;8.40;32.70;95840.94;5039683;28;20042;-71
2022/03/08 10:54:51;;;;;;;;;;;;;;;7.89;32.80;95837.78;5036701;28;20040;-71
2022/03/08 10:57:17;;;;;;;13.68;6.65;;;;;;;8.48;31.11;95835.28;5059337;28;19924;-70
2022/03/08 11:00:09;;;;;;;17.73;6.85;;;;;;;9.56;30.50;95832.69;5049432;28;20506;-71
2022/03/08 11:02:45;;;;;;;17.77;6.70;;;;;;;9.72;29.85;95825.69;5046691;28;20037;-70
2022/03/08 11:05:11;;;;;;;15.88;7.45;;;;;;;8.59;30.77;95827.50;5054160;28;20036;-71
2022/03/08 11:07:38;;;;;;;18.73;6.65;;;;;;;9.85;29.25;95830.47;5050300;28;20098;-71
2022/03/08 11:10:09;;;;;;;14.38;6.85;;;;;;;10.11;29.37;95825.31;5044035;28;20060;-71
2022/03/08 11:12:36;;;;;;;15.43;7.60;;;;;;;9.54;29.19;95819.03;5055350;28;20049;-71
2022/03/08 11:15:02;;;;;;;12.43;6.50;;;;;;;9.35;30.63;95829.16;5040077;28;20060;-71
2022/03/08 11:17:28;;;;;;;13.85;6.88;;;;;;;9.56;29.39;95826.66;5047183;28;20045;-71